Search for airport 
image banner adimage banner adimage banner ad
image banner ad

9CA4 - Hdmc Holdings Llc

Located in Joshua Tree, United States

ICAO - 9CA4, IATA -

Data provided by Airmate  

General information

Coordinates: N34°7'53" W116°16'33"
Elevation is 2652 feet MSL.
Magnetic variation is 14° East
View others Airports in California

Operational data

Special qualification required
Current time UTC:
Current local time:
Weather at : KNXP - Twentynine Palms Self ( 21 km )
METAR: KNXP 270356Z 20006KT 7SM FEW100 30/14 A3002 RMK AO2 SLP132 T03000144
TAF: TAF KNXP 2703/2803 VRB06KT 9999 FEW080 FEW150 QNH2999INS FM270930 VRB06KT 9999 SKC QNH3003INS BECMG 2717/2719 15010KT 9999 SKC QNH3002INS T25/2714Z T37/2723Z
View NOTAMs / SUP AIP / TFR affecting this airport [VIEW]
Communications frequencies: [VIEW]

Runways:

Airport contact information

Address: Joshua Tree United States

Satellite view of 9CA4